INFORMACIÓN METAR y TAF
METAR FOR GCTS
ADDS - METARS form results

(0854 UTC 25 August 2019)
Data provider http://aviationweather.gov/metar/data/
 
METAR text: GCTS 250830Z 07017KT CAVOK 26/18 Q1014 WS R07 NOSIG
Conditions at: GCTS (TENERIFE SUR/REI, ES) observed 0830 UTC 25 August 2019
Temperature: 26.0°C (79°F)
Dewpoint: 18.0°C (64°F) [RH = 61%]
Pressure (altimeter): 29.94 inches Hg (1014.0 mb)
Winds: from the ENE (70 degrees) at 20 MPH (17 knots; 8.7 m/s)
Visibility: 6 or more miles (10+ km)
Ceiling: ceiling and visibility are OK
Clouds: unknown
Weather: no significant weather observed at this time

METAR text: GCTS 250800Z 00000KT CAVOK 25/20 Q1014 WS R07 NOSIG
Conditions at: GCTS (TENERIFE SUR/REI, ES) observed 0800 UTC 25 August 2019
Temperature: 25.0°C (77°F)
Dewpoint: 20.0°C (68°F) [RH = 74%]
Pressure (altimeter): 29.94 inches Hg (1014.0 mb)
Winds: calm
Visibility: 6 or more miles (10+ km)
Ceiling: ceiling and visibility are OK
Clouds: unknown
Weather: no significant weather observed at this time

Forecast for: GCTS (TENERIFE SUR/REI, ES)
Text: TAF GCTS 250800Z 2509/2609 07021KT 9000 NSC TX32/2514Z TN25/2605Z
Forecast period: 0900 UTC 25 August 2019 to 0900 UTC 26 August 2019
Forecast type: FROM: standard forecast or significant change
Winds: from the ENE (70 degrees) at 24 MPH (21 knots; 10.8 m/s)
Visibility: 6 miles (9 km)
Ceiling: unknown
Clouds: missing
Weather: no significant weather forecast for this period
Text: TEMPO 2509/2521 22006KT
Forecast period: 0900 to 2100 UTC 25 August 2019
Forecast type: TEMPORARY: The following changes expected for less than half the time period
Winds: from the SW (220 degrees) at 7 MPH (6 knots; 3.1 m/s)
Visibility: missing
Ceiling: unknown
Clouds: missing
Weather: no significant weather forecast for this period
Text: TEMPO 2509/2521 06021G31KT
Forecast period: 0900 to 2100 UTC 25 August 2019
Forecast type: TEMPORARY: The following changes expected for less than half the time period
Winds: from the ENE (60 degrees) at 24 MPH (21 knots; 10.8 m/s)
gusting to 36 MPH (31 knots; 15.9 m/s)
Visibility: missing
Ceiling: unknown
Clouds: missing
Weather: no significant weather forecast for this period

 MAPA DE AEROPUERTO

 INFORMACIÓN DE PISTA
Pista 08 Longitud 10499 ft Ancho 148 ft
Elevación 187 ft Umbral desplazado 0 ft Rumbo de pista 69
Pista 26 Longitud 10499 ft Ancho 148 ft
Elevación 209 ft Umbral desplazado 0 ft Rumbo de pista 249

 FRECUANCIAS DEL AEROPUERTO
Tipo APP Nombre APP Frecuencia 120.3 MHZ
Tipo ATIS Nombre ATIS Frecuencia 118.675 MHZ
Tipo GND Nombre GND Frecuencia 121.9 MHZ
Tipo TWR Nombre TWR Frecuencia 119 MHZ

 RADIO AYUDAS DEL AEROPUERTO
Tipo NDB Nombre Tenerife Sur Frecuencia 317 KHZ
Tipo VOR-DME Nombre Tenerife Sur Frecuencia 116400 KHZ



Powered by Virtual Airlines Manager [v2.6.2]